sensor_id;sensor_type;location;lat;lon;timestamp;temperature;humidity
37594;DHT22;23441;50.856;6.076;2022-07-17T00:00:18;14.20;99.90
37594;DHT22;23441;50.856;6.076;2022-07-17T00:02:44;14.10;99.90
37594;DHT22;23441;50.856;6.076;2022-07-17T00:05:14;14.00;99.90
37594;DHT22;23441;50.856;6.076;2022-07-17T00:07:40;13.90;99.90
37594;DHT22;23441;50.856;6.076;2022-07-17T00:10:07;13.80;99.90
37594;DHT22;23441;50.856;6.076;2022-07-17T00:12:33;13.80;99.90
37594;DHT22;23441;50.856;6.076;2022-07-17T00:14:59;13.70;99.90
37594;DHT22;23441;50.856;6.076;2022-07-17T00:17:25;13.70;99.90
37594;DHT22;23441;50.856;6.076;2022-07-17T00:19:51;13.70;99.90
37594;DHT22;23441;50.856;6.076;2022-07-17T00:22:17;13.60;99.90
37594;DHT22;23441;50.856;6.076;2022-07-17T00:24:43;13.60;99.90
37594;DHT22;23441;50.856;6.076;2022-07-17T00:27:09;13.50;99.90
37594;DHT22;23441;50.856;6.076;2022-07-17T00:29:35;13.50;99.90
37594;DHT22;23441;50.856;6.076;2022-07-17T00:32:01;13.50;99.90
37594;DHT22;23441;50.856;6.076;2022-07-17T00:34:27;13.50;99.90
37594;DHT22;23441;50.856;6.076;2022-07-17T00:36:53;13.40;99.90
37594;DHT22;23441;50.856;6.076;2022-07-17T00:39:19;13.30;99.90
37594;DHT22;23441;50.856;6.076;2022-07-17T00:41:45;13.30;99.90
37594;DHT22;23441;50.856;6.076;2022-07-17T00:44:12;13.20;99.90
37594;DHT22;23441;50.856;6.076;2022-07-17T00:46:38;13.10;99.90
37594;DHT22;23441;50.856;6.076;2022-07-17T00:49:05;13.10;99.90
37594;DHT22;23441;50.856;6.076;2022-07-17T00:51:33;13.10;99.90
37594;DHT22;23441;50.856;6.076;2022-07-17T00:54:00;13.10;99.90
37594;DHT22;23441;50.856;6.076;2022-07-17T00:56:28;13.00;99.90
37594;DHT22;23441;50.856;6.076;2022-07-17T00:58:54;13.00;99.90
37594;DHT22;23441;50.856;6.076;2022-07-17T01:01:20;13.00;99.90
37594;DHT22;23441;50.856;6.076;2022-07-17T01:03:46;13.00;99.90
37594;DHT22;23441;50.856;6.076;2022-07-17T01:06:12;12.90;99.90
37594;DHT22;23441;50.856;6.076;2022-07-17T01:08:38;12.90;99.90
37594;DHT22;23441;50.856;6.076;2022-07-17T01:11:07;12.80;99.90
37594;DHT22;23441;50.856;6.076;2022-07-17T01:13:33;12.90;99.90
37594;DHT22;23441;50.856;6.076;2022-07-17T01:15:59;12.90;99.90
37594;DHT22;23441;50.856;6.076;2022-07-17T01:18:25;12.90;99.90
37594;DHT22;23441;50.856;6.076;2022-07-17T01:20:51;12.80;99.90
37594;DHT22;23441;50.856;6.076;2022-07-17T01:23:18;12.70;99.90
37594;DHT22;23441;50.856;6.076;2022-07-17T01:25:46;12.60;99.90
37594;DHT22;23441;50.856;6.076;2022-07-17T01:28:13;12.60;99.90
37594;DHT22;23441;50.856;6.076;2022-07-17T01:30:49;12.60;99.90
37594;DHT22;23441;50.856;6.076;2022-07-17T01:33:17;12.50;99.90
37594;DHT22;23441;50.856;6.076;2022-07-17T01:35:43;12.50;99.90
37594;DHT22;23441;50.856;6.076;2022-07-17T01:38:10;12.40;99.90
37594;DHT22;23441;50.856;6.076;2022-07-17T01:40:36;12.40;99.90
37594;DHT22;23441;50.856;6.076;2022-07-17T01:43:02;12.40;99.90
37594;DHT22;23441;50.856;6.076;2022-07-17T01:45:27;12.30;99.90
37594;DHT22;23441;50.856;6.076;2022-07-17T01:47:54;12.30;99.90
37594;DHT22;23441;50.856;6.076;2022-07-17T01:50:20;12.30;99.90
37594;DHT22;23441;50.856;6.076;2022-07-17T01:52:46;12.30;99.90
37594;DHT22;23441;50.856;6.076;2022-07-17T01:55:14;12.20;99.90
37594;DHT22;23441;50.856;6.076;2022-07-17T01:57:41;12.20;99.90
37594;DHT22;23441;50.856;6.076;2022-07-17T02:00:11;12.20;99.90
37594;DHT22;23441;50.856;6.076;2022-07-17T02:02:40;12.10;99.90
37594;DHT22;23441;50.856;6.076;2022-07-17T02:05:07;12.00;99.90
37594;DHT22;23441;50.856;6.076;2022-07-17T02:07:33;12.10;99.90
37594;DHT22;23441;50.856;6.076;2022-07-17T02:10:00;12.10;99.90
37594;DHT22;23441;50.856;6.076;2022-07-17T02:12:26;12.10;99.90
37594;DHT22;23441;50.856;6.076;2022-07-17T02:14:52;12.10;99.90
37594;DHT22;23441;50.856;6.076;2022-07-17T02:17:18;12.10;99.90
37594;DHT22;23441;50.856;6.076;2022-07-17T02:19:44;12.00;99.90
37594;DHT22;23441;50.856;6.076;2022-07-17T02:22:10;12.00;99.90
37594;DHT22;23441;50.856;6.076;2022-07-17T02:24:36;11.90;99.90
37594;DHT22;23441;50.856;6.076;2022-07-17T02:27:02;11.80;99.90
37594;DHT22;23441;50.856;6.076;2022-07-17T02:29:28;11.70;99.90
37594;DHT22;23441;50.856;6.076;2022-07-17T02:31:54;11.70;99.90
37594;DHT22;23441;50.856;6.076;2022-07-17T02:34:20;11.60;99.90
37594;DHT22;23441;50.856;6.076;2022-07-17T02:36:45;11.50;99.90
37594;DHT22;23441;50.856;6.076;2022-07-17T02:39:11;11.60;99.90
37594;DHT22;23441;50.856;6.076;2022-07-17T02:41:37;11.60;99.90
37594;DHT22;23441;50.856;6.076;2022-07-17T02:44:03;11.50;99.90
37594;DHT22;23441;50.856;6.076;2022-07-17T02:46:29;11.50;99.90
37594;DHT22;23441;50.856;6.076;2022-07-17T02:48:55;11.40;99.90
37594;DHT22;23441;50.856;6.076;2022-07-17T02:51:21;11.40;99.90
37594;DHT22;23441;50.856;6.076;2022-07-17T02:53:47;11.40;99.90
37594;DHT22;23441;50.856;6.076;2022-07-17T02:56:13;11.30;99.90
37594;DHT22;23441;50.856;6.076;2022-07-17T02:58:39;11.30;99.90
37594;DHT22;23441;50.856;6.076;2022-07-17T03:01:05;11.30;99.90
37594;DHT22;23441;50.856;6.076;2022-07-17T03:03:31;11.40;99.90
37594;DHT22;23441;50.856;6.076;2022-07-17T03:05:57;11.40;99.90
37594;DHT22;23441;50.856;6.076;2022-07-17T03:08:23;11.40;99.90
37594;DHT22;23441;50.856;6.076;2022-07-17T03:10:49;11.40;99.90
37594;DHT22;23441;50.856;6.076;2022-07-17T03:13:15;11.50;99.90
37594;DHT22;23441;50.856;6.076;2022-07-17T03:15:41;11.70;99.90
37594;DHT22;23441;50.856;6.076;2022-07-17T03:18:07;11.70;99.90
37594;DHT22;23441;50.856;6.076;2022-07-17T03:20:33;11.80;99.90
37594;DHT22;23441;50.856;6.076;2022-07-17T03:22:58;11.70;99.90
37594;DHT22;23441;50.856;6.076;2022-07-17T03:25:24;11.60;99.90
37594;DHT22;23441;50.856;6.076;2022-07-17T03:27:50;11.60;99.90
37594;DHT22;23441;50.856;6.076;2022-07-17T03:30:16;11.40;99.90
37594;DHT22;23441;50.856;6.076;2022-07-17T03:32:42;11.40;99.90
37594;DHT22;23441;50.856;6.076;2022-07-17T03:35:08;11.40;99.90
37594;DHT22;23441;50.856;6.076;2022-07-17T03:37:34;11.30;99.90
37594;DHT22;23441;50.856;6.076;2022-07-17T03:40:04;11.30;99.90
37594;DHT22;23441;50.856;6.076;2022-07-17T03:42:31;11.20;99.90
37594;DHT22;23441;50.856;6.076;2022-07-17T03:44:57;11.10;99.90
37594;DHT22;23441;50.856;6.076;2022-07-17T03:47:23;11.10;99.90
37594;DHT22;23441;50.856;6.076;2022-07-17T03:49:49;11.00;99.90
37594;DHT22;23441;50.856;6.076;2022-07-17T03:52:15;10.90;99.90
37594;DHT22;23441;50.856;6.076;2022-07-17T03:54:41;10.90;99.90
37594;DHT22;23441;50.856;6.076;2022-07-17T03:57:07;10.80;99.90
37594;DHT22;23441;50.856;6.076;2022-07-17T03:59:33;10.90;99.90
37594;DHT22;23441;50.856;6.076;2022-07-17T04:01:58;10.80;99.90
37594;DHT22;23441;50.856;6.076;2022-07-17T04:04:24;10.80;99.90
37594;DHT22;23441;50.856;6.076;2022-07-17T04:06:51;10.80;99.90
37594;DHT22;23441;50.856;6.076;2022-07-17T04:09:16;10.90;99.90
37594;DHT22;23441;50.856;6.076;2022-07-17T04:11:42;11.00;99.90
37594;DHT22;23441;50.856;6.076;2022-07-17T04:14:08;11.00;99.90
37594;DHT22;23441;50.856;6.076;2022-07-17T04:16:34;11.00;99.90
37594;DHT22;23441;50.856;6.076;2022-07-17T04:19:00;11.10;99.90
37594;DHT22;23441;50.856;6.076;2022-07-17T04:21:26;11.10;99.90
37594;DHT22;23441;50.856;6.076;2022-07-17T04:23:52;11.20;99.90
37594;DHT22;23441;50.856;6.076;2022-07-17T04:26:17;11.20;99.90
37594;DHT22;23441;50.856;6.076;2022-07-17T04:28:43;11.30;99.90
37594;DHT22;23441;50.856;6.076;2022-07-17T04:31:09;11.40;99.90
37594;DHT22;23441;50.856;6.076;2022-07-17T04:33:35;11.40;99.90
37594;DHT22;23441;50.856;6.076;2022-07-17T04:36:02;11.40;99.90
37594;DHT22;23441;50.856;6.076;2022-07-17T04:38:28;11.50;99.90
37594;DHT22;23441;50.856;6.076;2022-07-17T04:40:54;11.50;99.90
37594;DHT22;23441;50.856;6.076;2022-07-17T04:43:19;11.60;99.90
37594;DHT22;23441;50.856;6.076;2022-07-17T04:45:45;11.60;99.90
37594;DHT22;23441;50.856;6.076;2022-07-17T04:48:11;11.70;99.90
37594;DHT22;23441;50.856;6.076;2022-07-17T04:50:37;11.70;99.90
37594;DHT22;23441;50.856;6.076;2022-07-17T04:53:03;11.80;99.90
37594;DHT22;23441;50.856;6.076;2022-07-17T04:55:29;11.90;99.90
37594;DHT22;23441;50.856;6.076;2022-07-17T04:57:55;12.00;99.90
37594;DHT22;23441;50.856;6.076;2022-07-17T05:00:21;12.20;99.90
37594;DHT22;23441;50.856;6.076;2022-07-17T05:02:47;12.20;99.90
37594;DHT22;23441;50.856;6.076;2022-07-17T05:05:13;12.40;99.90
37594;DHT22;23441;50.856;6.076;2022-07-17T05:07:39;12.50;99.90
37594;DHT22;23441;50.856;6.076;2022-07-17T05:10:05;12.50;99.90
37594;DHT22;23441;50.856;6.076;2022-07-17T05:12:32;12.60;99.90
37594;DHT22;23441;50.856;6.076;2022-07-17T05:14:58;12.60;99.90
37594;DHT22;23441;50.856;6.076;2022-07-17T05:17:24;12.70;99.90
37594;DHT22;23441;50.856;6.076;2022-07-17T05:19:50;12.70;99.90
37594;DHT22;23441;50.856;6.076;2022-07-17T05:22:16;13.10;99.90
37594;DHT22;23441;50.856;6.076;2022-07-17T05:24:42;14.00;99.90
37594;DHT22;23441;50.856;6.076;2022-07-17T05:27:08;16.20;99.90
37594;DHT22;23441;50.856;6.076;2022-07-17T05:29:33;16.70;99.90
37594;DHT22;23441;50.856;6.076;2022-07-17T05:31:59;16.80;99.90
37594;DHT22;23441;50.856;6.076;2022-07-17T05:34:25;16.70;99.90
37594;DHT22;23441;50.856;6.076;2022-07-17T05:36:51;16.60;99.90
37594;DHT22;23441;50.856;6.076;2022-07-17T05:39:17;17.30;99.90
37594;DHT22;23441;50.856;6.076;2022-07-17T05:41:43;18.10;99.90
37594;DHT22;23441;50.856;6.076;2022-07-17T05:44:09;18.00;99.90
37594;DHT22;23441;50.856;6.076;2022-07-17T05:46:35;17.60;99.90
37594;DHT22;23441;50.856;6.076;2022-07-17T05:49:01;17.20;99.90
37594;DHT22;23441;50.856;6.076;2022-07-17T05:51:26;16.90;99.90
37594;DHT22;23441;50.856;6.076;2022-07-17T05:53:52;16.40;99.90
37594;DHT22;23441;50.856;6.076;2022-07-17T05:56:18;16.20;99.90
37594;DHT22;23441;50.856;6.076;2022-07-17T05:58:45;15.90;99.90
37594;DHT22;23441;50.856;6.076;2022-07-17T06:01:11;16.00;99.90
37594;DHT22;23441;50.856;6.076;2022-07-17T06:03:37;16.40;99.90
37594;DHT22;23441;50.856;6.076;2022-07-17T06:06:03;17.30;99.90
37594;DHT22;23441;50.856;6.076;2022-07-17T06:08:29;18.10;99.90
37594;DHT22;23441;50.856;6.076;2022-07-17T06:10:55;18.20;99.90
37594;DHT22;23441;50.856;6.076;2022-07-17T06:13:21;18.00;99.90
37594;DHT22;23441;50.856;6.076;2022-07-17T06:15:46;17.90;99.90
37594;DHT22;23441;50.856;6.076;2022-07-17T06:18:12;17.90;99.90
37594;DHT22;23441;50.856;6.076;2022-07-17T06:20:38;19.30;99.90
37594;DHT22;23441;50.856;6.076;2022-07-17T06:23:04;20.80;99.90
37594;DHT22;23441;50.856;6.076;2022-07-17T06:25:30;22.20;99.90
37594;DHT22;23441;50.856;6.076;2022-07-17T06:27:56;23.80;99.90
37594;DHT22;23441;50.856;6.076;2022-07-17T06:30:22;24.00;96.90
37594;DHT22;23441;50.856;6.076;2022-07-17T06:32:48;25.10;95.10
37594;DHT22;23441;50.856;6.076;2022-07-17T06:35:15;26.40;93.50
37594;DHT22;23441;50.856;6.076;2022-07-17T06:37:41;26.50;90.40
37594;DHT22;23441;50.856;6.076;2022-07-17T06:40:07;27.40;91.30
37594;DHT22;23441;50.856;6.076;2022-07-17T06:42:33;27.60;90.60
37594;DHT22;23441;50.856;6.076;2022-07-17T06:44:59;28.60;90.40
37594;DHT22;23441;50.856;6.076;2022-07-17T06:47:25;28.90;88.30
37594;DHT22;23441;50.856;6.076;2022-07-17T06:49:51;29.30;85.80
37594;DHT22;23441;50.856;6.076;2022-07-17T06:52:17;29.10;83.60
37594;DHT22;23441;50.856;6.076;2022-07-17T06:54:43;28.80;85.90
37594;DHT22;23441;50.856;6.076;2022-07-17T06:57:09;29.50;85.30
37594;DHT22;23441;50.856;6.076;2022-07-17T06:59:34;30.50;83.50
37594;DHT22;23441;50.856;6.076;2022-07-17T07:02:00;30.20;82.00
37594;DHT22;23441;50.856;6.076;2022-07-17T07:04:26;29.30;81.40
37594;DHT22;23441;50.856;6.076;2022-07-17T07:06:52;30.00;81.80
37594;DHT22;23441;50.856;6.076;2022-07-17T07:09:18;30.00;82.00
37594;DHT22;23441;50.856;6.076;2022-07-17T07:11:44;29.50;80.20
37594;DHT22;23441;50.856;6.076;2022-07-17T07:14:10;30.90;80.90
37594;DHT22;23441;50.856;6.076;2022-07-17T07:16:36;30.70;80.10
37594;DHT22;23441;50.856;6.076;2022-07-17T07:19:02;30.50;79.90
37594;DHT22;23441;50.856;6.076;2022-07-17T07:21:28;30.40;81.10
37594;DHT22;23441;50.856;6.076;2022-07-17T07:23:54;30.60;81.00
37594;DHT22;23441;50.856;6.076;2022-07-17T07:26:21;31.60;78.40
37594;DHT22;23441;50.856;6.076;2022-07-17T07:28:47;30.70;78.10
37594;DHT22;23441;50.856;6.076;2022-07-17T07:31:13;30.40;78.20
37594;DHT22;23441;50.856;6.076;2022-07-17T07:33:39;30.20;77.70
37594;DHT22;23441;50.856;6.076;2022-07-17T07:36:06;31.20;78.10
37594;DHT22;23441;50.856;6.076;2022-07-17T07:38:32;31.10;79.30
37594;DHT22;23441;50.856;6.076;2022-07-17T07:40:58;31.70;75.00
37594;DHT22;23441;50.856;6.076;2022-07-17T07:43:24;30.40;74.50
37594;DHT22;23441;50.856;6.076;2022-07-17T07:45:50;29.10;74.10
37594;DHT22;23441;50.856;6.076;2022-07-17T07:48:16;28.30;76.10
37594;DHT22;23441;50.856;6.076;2022-07-17T07:50:42;27.50;77.30
37594;DHT22;23441;50.856;6.076;2022-07-17T07:53:09;26.90;78.00
37594;DHT22;23441;50.856;6.076;2022-07-17T07:55:35;26.90;81.20
37594;DHT22;23441;50.856;6.076;2022-07-17T07:58:05;27.00;78.40
37594;DHT22;23441;50.856;6.076;2022-07-17T08:00:33;27.00;80.80
37594;DHT22;23441;50.856;6.076;2022-07-17T08:02:59;28.70;78.30
37594;DHT22;23441;50.856;6.076;2022-07-17T08:05:25;29.90;77.40
37594;DHT22;23441;50.856;6.076;2022-07-17T08:07:51;30.50;73.90
37594;DHT22;23441;50.856;6.076;2022-07-17T08:10:17;29.80;75.20
37594;DHT22;23441;50.856;6.076;2022-07-17T08:12:43;29.20;73.60
37594;DHT22;23441;50.856;6.076;2022-07-17T08:15:11;29.30;75.30
37594;DHT22;23441;50.856;6.076;2022-07-17T08:17:37;28.70;75.00
37594;DHT22;23441;50.856;6.076;2022-07-17T08:20:03;29.00;72.80
37594;DHT22;23441;50.856;6.076;2022-07-17T08:22:30;28.90;72.30
37594;DHT22;23441;50.856;6.076;2022-07-17T08:24:56;28.70;73.00
37594;DHT22;23441;50.856;6.076;2022-07-17T08:27:21;28.50;74.00
37594;DHT22;23441;50.856;6.076;2022-07-17T08:29:47;28.00;75.00
37594;DHT22;23441;50.856;6.076;2022-07-17T08:32:13;28.40;77.30
37594;DHT22;23441;50.856;6.076;2022-07-17T08:34:39;29.50;74.50
37594;DHT22;23441;50.856;6.076;2022-07-17T08:37:05;29.60;73.90
37594;DHT22;23441;50.856;6.076;2022-07-17T08:39:31;29.60;72.90
37594;DHT22;23441;50.856;6.076;2022-07-17T08:41:57;29.70;74.40
37594;DHT22;23441;50.856;6.076;2022-07-17T08:44:23;30.00;74.90
37594;DHT22;23441;50.856;6.076;2022-07-17T08:46:50;30.50;72.60
37594;DHT22;23441;50.856;6.076;2022-07-17T08:49:20;31.90;72.20
37594;DHT22;23441;50.856;6.076;2022-07-17T08:51:48;30.80;69.20
37594;DHT22;23441;50.856;6.076;2022-07-17T08:54:14;31.50;70.70
37594;DHT22;23441;50.856;6.076;2022-07-17T08:56:40;32.20;71.20
37594;DHT22;23441;50.856;6.076;2022-07-17T08:59:07;32.40;69.20
37594;DHT22;23441;50.856;6.076;2022-07-17T09:01:32;32.30;68.60
37594;DHT22;23441;50.856;6.076;2022-07-17T09:04:01;31.80;72.00
37594;DHT22;23441;50.856;6.076;2022-07-17T09:06:32;31.30;72.10
37594;DHT22;23441;50.856;6.076;2022-07-17T09:09:07;31.70;69.80
37594;DHT22;23441;50.856;6.076;2022-07-17T09:11:46;31.90;69.40
37594;DHT22;23441;50.856;6.076;2022-07-17T09:14:14;32.00;70.00
37594;DHT22;23441;50.856;6.076;2022-07-17T09:16:58;32.50;65.20
37594;DHT22;23441;50.856;6.076;2022-07-17T09:29:56;31.80;64.60
37594;DHT22;23441;50.856;6.076;2022-07-17T09:32:40;31.60;64.90
37594;DHT22;23441;50.856;6.076;2022-07-17T09:35:09;31.60;67.10
37594;DHT22;23441;50.856;6.076;2022-07-17T09:37:37;30.80;64.00
37594;DHT22;23441;50.856;6.076;2022-07-17T09:40:11;29.40;66.30
37594;DHT22;23441;50.856;6.076;2022-07-17T09:42:58;29.60;68.80
37594;DHT22;23441;50.856;6.076;2022-07-17T09:45:24;29.00;68.10
37594;DHT22;23441;50.856;6.076;2022-07-17T09:47:52;28.50;67.60
37594;DHT22;23441;50.856;6.076;2022-07-17T09:50:19;28.50;70.90
37594;DHT22;23441;50.856;6.076;2022-07-17T09:52:45;28.00;70.10
37594;DHT22;23441;50.856;6.076;2022-07-17T09:55:11;27.70;73.00
37594;DHT22;23441;50.856;6.076;2022-07-17T09:57:41;27.20;68.30
37594;DHT22;23441;50.856;6.076;2022-07-17T10:00:09;26.90;69.20
37594;DHT22;23441;50.856;6.076;2022-07-17T10:02:42;26.60;72.60
37594;DHT22;23441;50.856;6.076;2022-07-17T10:05:13;26.40;69.70
37594;DHT22;23441;50.856;6.076;2022-07-17T10:07:45;25.90;72.10
37594;DHT22;23441;50.856;6.076;2022-07-17T10:10:13;25.80;72.40
37594;DHT22;23441;50.856;6.076;2022-07-17T10:12:42;25.60;71.20
37594;DHT22;23441;50.856;6.076;2022-07-17T10:15:10;25.70;71.80
37594;DHT22;23441;50.856;6.076;2022-07-17T10:17:37;25.60;71.20
37594;DHT22;23441;50.856;6.076;2022-07-17T10:20:03;25.70;71.60
37594;DHT22;23441;50.856;6.076;2022-07-17T10:22:48;26.10;74.60
37594;DHT22;23441;50.856;6.076;2022-07-17T10:25:15;26.60;71.30
37594;DHT22;23441;50.856;6.076;2022-07-17T10:27:55;27.10;73.10
37594;DHT22;23441;50.856;6.076;2022-07-17T10:30:29;27.70;67.90
37594;DHT22;23441;50.856;6.076;2022-07-17T10:33:00;27.10;69.60
37594;DHT22;23441;50.856;6.076;2022-07-17T10:35:46;27.50;69.90
37594;DHT22;23441;50.856;6.076;2022-07-17T10:38:14;27.00;68.80
37594;DHT22;23441;50.856;6.076;2022-07-17T10:40:41;27.80;73.20
37594;DHT22;23441;50.856;6.076;2022-07-17T10:43:08;28.60;69.50
37594;DHT22;23441;50.856;6.076;2022-07-17T10:45:37;28.40;67.60
37594;DHT22;23441;50.856;6.076;2022-07-17T10:53:32;29.00;71.40
37594;DHT22;23441;50.856;6.076;2022-07-17T10:56:08;28.20;67.10
37594;DHT22;23441;50.856;6.076;2022-07-17T10:58:38;28.30;67.80
37594;DHT22;23441;50.856;6.076;2022-07-17T11:01:11;28.00;66.70
37594;DHT22;23441;50.856;6.076;2022-07-17T11:09:18;29.60;70.50
37594;DHT22;23441;50.856;6.076;2022-07-17T11:11:49;29.30;67.10
37594;DHT22;23441;50.856;6.076;2022-07-17T11:14:24;28.40;67.70
37594;DHT22;23441;50.856;6.076;2022-07-17T11:16:55;27.60;67.60
37594;DHT22;23441;50.856;6.076;2022-07-17T11:19:36;28.20;70.10
37594;DHT22;23441;50.856;6.076;2022-07-17T11:22:12;28.60;66.00
37594;DHT22;23441;50.856;6.076;2022-07-17T11:24:43;28.80;68.10
37594;DHT22;23441;50.856;6.076;2022-07-17T11:27:25;28.70;69.20
37594;DHT22;23441;50.856;6.076;2022-07-17T11:29:56;29.00;69.30
37594;DHT22;23441;50.856;6.076;2022-07-17T11:32:24;28.50;66.50
37594;DHT22;23441;50.856;6.076;2022-07-17T11:34:52;28.60;67.30
37594;DHT22;23441;50.856;6.076;2022-07-17T11:37:19;27.90;67.40
37594;DHT22;23441;50.856;6.076;2022-07-17T11:39:50;28.00;68.30
37594;DHT22;23441;50.856;6.076;2022-07-17T11:42:20;28.10;69.70
37594;DHT22;23441;50.856;6.076;2022-07-17T11:44:53;27.70;68.90
37594;DHT22;23441;50.856;6.076;2022-07-17T11:47:22;28.40;70.60
37594;DHT22;23441;50.856;6.076;2022-07-17T11:49:49;28.90;70.80
37594;DHT22;23441;50.856;6.076;2022-07-17T11:52:17;28.50;69.10
37594;DHT22;23441;50.856;6.076;2022-07-17T11:54:53;28.60;67.50
37594;DHT22;23441;50.856;6.076;2022-07-17T11:57:26;29.00;70.20
37594;DHT22;23441;50.856;6.076;2022-07-17T11:59:52;28.80;69.60
37594;DHT22;23441;50.856;6.076;2022-07-17T12:02:22;29.00;68.70
37594;DHT22;23441;50.856;6.076;2022-07-17T12:04:56;29.40;71.60
37594;DHT22;23441;50.856;6.076;2022-07-17T12:07:25;29.20;70.20
37594;DHT22;23441;50.856;6.076;2022-07-17T12:10:18;28.90;67.50
37594;DHT22;23441;50.856;6.076;2022-07-17T12:13:03;28.90;66.50
37594;DHT22;23441;50.856;6.076;2022-07-17T12:15:42;28.80;69.30
37594;DHT22;23441;50.856;6.076;2022-07-17T12:20:53;29.10;66.70
37594;DHT22;23441;50.856;6.076;2022-07-17T12:23:33;29.20;66.70
37594;DHT22;23441;50.856;6.076;2022-07-17T12:26:26;28.90;66.50
37594;DHT22;23441;50.856;6.076;2022-07-17T12:28:52;28.50;67.20
37594;DHT22;23441;50.856;6.076;2022-07-17T12:31:18;28.70;71.40
37594;DHT22;23441;50.856;6.076;2022-07-17T12:33:45;28.50;67.20
37594;DHT22;23441;50.856;6.076;2022-07-17T12:36:12;28.90;67.40
37594;DHT22;23441;50.856;6.076;2022-07-17T12:38:38;29.30;67.00
37594;DHT22;23441;50.856;6.076;2022-07-17T12:41:04;29.20;68.20
37594;DHT22;23441;50.856;6.076;2022-07-17T12:43:31;28.90;65.40
37594;DHT22;23441;50.856;6.076;2022-07-17T12:45:57;28.70;64.90
37594;DHT22;23441;50.856;6.076;2022-07-17T12:48:23;28.90;66.40
37594;DHT22;23441;50.856;6.076;2022-07-17T12:50:49;29.40;67.20
37594;DHT22;23441;50.856;6.076;2022-07-17T12:53:15;29.80;70.30
37594;DHT22;23441;50.856;6.076;2022-07-17T12:55:41;29.20;64.60
37594;DHT22;23441;50.856;6.076;2022-07-17T12:58:07;28.90;64.60
37594;DHT22;23441;50.856;6.076;2022-07-17T13:00:33;29.30;65.30
37594;DHT22;23441;50.856;6.076;2022-07-17T13:02:59;29.60;64.60
37594;DHT22;23441;50.856;6.076;2022-07-17T13:05:28;29.70;66.00
37594;DHT22;23441;50.856;6.076;2022-07-17T13:07:54;29.60;65.20
37594;DHT22;23441;50.856;6.076;2022-07-17T13:10:20;29.10;64.70
37594;DHT22;23441;50.856;6.076;2022-07-17T13:12:46;29.00;63.30
37594;DHT22;23441;50.856;6.076;2022-07-17T13:15:12;29.10;63.00
37594;DHT22;23441;50.856;6.076;2022-07-17T13:17:38;29.20;62.70
37594;DHT22;23441;50.856;6.076;2022-07-17T13:20:04;29.40;66.70
37594;DHT22;23441;50.856;6.076;2022-07-17T13:22:32;29.50;66.60
37594;DHT22;23441;50.856;6.076;2022-07-17T13:24:58;29.40;63.70
37594;DHT22;23441;50.856;6.076;2022-07-17T13:27:24;29.50;64.20
37594;DHT22;23441;50.856;6.076;2022-07-17T13:29:49;29.80;66.90
37594;DHT22;23441;50.856;6.076;2022-07-17T13:32:16;30.30;64.80
37594;DHT22;23441;50.856;6.076;2022-07-17T13:34:42;30.60;66.40
37594;DHT22;23441;50.856;6.076;2022-07-17T13:37:08;30.10;67.60
37594;DHT22;23441;50.856;6.076;2022-07-17T13:39:34;30.10;66.50
37594;DHT22;23441;50.856;6.076;2022-07-17T13:42:01;30.20;65.10
37594;DHT22;23441;50.856;6.076;2022-07-17T13:44:28;29.80;63.20
37594;DHT22;23441;50.856;6.076;2022-07-17T13:46:54;29.90;65.10
37594;DHT22;23441;50.856;6.076;2022-07-17T13:49:20;29.20;65.40
37594;DHT22;23441;50.856;6.076;2022-07-17T13:51:47;29.70;65.90
37594;DHT22;23441;50.856;6.076;2022-07-17T13:54:13;30.30;65.70
37594;DHT22;23441;50.856;6.076;2022-07-17T13:56:39;30.50;63.70
37594;DHT22;23441;50.856;6.076;2022-07-17T13:59:05;30.80;64.60
37594;DHT22;23441;50.856;6.076;2022-07-17T14:01:31;30.90;62.40
37594;DHT22;23441;50.856;6.076;2022-07-17T14:04:00;30.20;64.10
37594;DHT22;23441;50.856;6.076;2022-07-17T14:06:26;30.30;63.80
37594;DHT22;23441;50.856;6.076;2022-07-17T14:08:52;29.50;62.60
37594;DHT22;23441;50.856;6.076;2022-07-17T14:11:18;30.10;66.30
37594;DHT22;23441;50.856;6.076;2022-07-17T14:13:44;29.70;62.60
37594;DHT22;23441;50.856;6.076;2022-07-17T14:16:10;29.40;64.20
37594;DHT22;23441;50.856;6.076;2022-07-17T14:18:36;29.60;63.50
37594;DHT22;23441;50.856;6.076;2022-07-17T14:21:22;29.80;64.00
37594;DHT22;23441;50.856;6.076;2022-07-17T14:23:48;30.40;63.10
37594;DHT22;23441;50.856;6.076;2022-07-17T14:26:14;30.70;65.90
37594;DHT22;23441;50.856;6.076;2022-07-17T14:28:40;30.80;65.00
37594;DHT22;23441;50.856;6.076;2022-07-17T14:31:06;30.50;63.50
37594;DHT22;23441;50.856;6.076;2022-07-17T14:33:32;30.30;65.00
37594;DHT22;23441;50.856;6.076;2022-07-17T14:35:57;30.60;64.40
37594;DHT22;23441;50.856;6.076;2022-07-17T14:38:24;30.00;63.40
37594;DHT22;23441;50.856;6.076;2022-07-17T14:40:50;29.80;64.20
37594;DHT22;23441;50.856;6.076;2022-07-17T14:43:16;29.70;62.30
37594;DHT22;23441;50.856;6.076;2022-07-17T14:45:41;29.80;64.10
37594;DHT22;23441;50.856;6.076;2022-07-17T14:48:07;30.10;66.00
37594;DHT22;23441;50.856;6.076;2022-07-17T14:50:33;30.30;64.60
37594;DHT22;23441;50.856;6.076;2022-07-17T14:52:59;30.50;64.60
37594;DHT22;23441;50.856;6.076;2022-07-17T14:55:25;30.40;65.50
37594;DHT22;23441;50.856;6.076;2022-07-17T14:57:51;30.50;62.40
37594;DHT22;23441;50.856;6.076;2022-07-17T15:00:17;30.70;66.80
37594;DHT22;23441;50.856;6.076;2022-07-17T15:02:43;30.50;64.60
37594;DHT22;23441;50.856;6.076;2022-07-17T15:05:09;30.70;63.30
37594;DHT22;23441;50.856;6.076;2022-07-17T15:07:35;29.90;64.00
37594;DHT22;23441;50.856;6.076;2022-07-17T15:10:01;30.30;63.90
37594;DHT22;23441;50.856;6.076;2022-07-17T15:12:28;30.30;65.20
37594;DHT22;23441;50.856;6.076;2022-07-17T15:14:54;30.60;67.10
37594;DHT22;23441;50.856;6.076;2022-07-17T15:17:19;30.50;62.70
37594;DHT22;23441;50.856;6.076;2022-07-17T15:19:45;30.10;63.60
37594;DHT22;23441;50.856;6.076;2022-07-17T15:22:11;30.10;63.90
37594;DHT22;23441;50.856;6.076;2022-07-17T15:24:37;30.40;66.00
37594;DHT22;23441;50.856;6.076;2022-07-17T15:27:03;30.40;64.30
37594;DHT22;23441;50.856;6.076;2022-07-17T15:29:29;30.20;63.90
37594;DHT22;23441;50.856;6.076;2022-07-17T15:31:55;30.10;65.20
37594;DHT22;23441;50.856;6.076;2022-07-17T15:34:21;30.00;68.10
37594;DHT22;23441;50.856;6.076;2022-07-17T15:36:46;30.30;67.00
37594;DHT22;23441;50.856;6.076;2022-07-17T15:39:12;30.20;68.00
37594;DHT22;23441;50.856;6.076;2022-07-17T15:41:38;30.40;67.40
37594;DHT22;23441;50.856;6.076;2022-07-17T15:44:04;30.40;66.70
37594;DHT22;23441;50.856;6.076;2022-07-17T15:46:31;30.40;66.40
37594;DHT22;23441;50.856;6.076;2022-07-17T15:48:58;30.50;65.80
37594;DHT22;23441;50.856;6.076;2022-07-17T15:51:25;30.50;66.80
37594;DHT22;23441;50.856;6.076;2022-07-17T15:53:51;30.50;67.30